sensor_id;sensor_type;location;lat;lon;timestamp;temperature;humidity
80234;DHT22;69712;42.142;24.766;2023-12-29T00:02:14;6.40;66.30
80234;DHT22;69712;42.142;24.766;2023-12-29T00:04:40;6.30;66.10
80234;DHT22;69712;42.142;24.766;2023-12-29T00:07:06;6.40;65.30
80234;DHT22;69712;42.142;24.766;2023-12-29T00:09:31;6.40;65.20
80234;DHT22;69712;42.142;24.766;2023-12-29T00:12:04;6.40;64.80
80234;DHT22;69712;42.142;24.766;2023-12-29T00:14:29;6.50;64.40
80234;DHT22;69712;42.142;24.766;2023-12-29T00:16:55;6.60;64.00
80234;DHT22;69712;42.142;24.766;2023-12-29T00:19:22;6.70;63.60
80234;DHT22;69712;42.142;24.766;2023-12-29T00:21:48;6.80;63.50
80234;DHT22;69712;42.142;24.766;2023-12-29T00:24:14;6.70;63.80
80234;DHT22;69712;42.142;24.766;2023-12-29T00:26:40;6.70;63.90
80234;DHT22;69712;42.142;24.766;2023-12-29T00:29:06;6.70;63.50
80234;DHT22;69712;42.142;24.766;2023-12-29T00:31:32;6.60;64.20
80234;DHT22;69712;42.142;24.766;2023-12-29T00:33:58;6.60;64.70
80234;DHT22;69712;42.142;24.766;2023-12-29T00:36:24;6.50;65.20
80234;DHT22;69712;42.142;24.766;2023-12-29T00:38:50;6.50;64.70
80234;DHT22;69712;42.142;24.766;2023-12-29T00:41:16;6.50;64.00
80234;DHT22;69712;42.142;24.766;2023-12-29T00:43:42;6.70;64.10
80234;DHT22;69712;42.142;24.766;2023-12-29T00:46:08;6.60;64.00
80234;DHT22;69712;42.142;24.766;2023-12-29T00:48:34;6.50;63.90
80234;DHT22;69712;42.142;24.766;2023-12-29T00:51:01;6.30;64.50
80234;DHT22;69712;42.142;24.766;2023-12-29T00:53:28;6.40;64.40
80234;DHT22;69712;42.142;24.766;2023-12-29T00:55:54;6.50;64.10
80234;DHT22;69712;42.142;24.766;2023-12-29T00:58:20;6.60;63.90
80234;DHT22;69712;42.142;24.766;2023-12-29T01:00:46;6.60;64.10
80234;DHT22;69712;42.142;24.766;2023-12-29T01:03:12;6.70;63.60
80234;DHT22;69712;42.142;24.766;2023-12-29T01:05:38;6.80;63.60
80234;DHT22;69712;42.142;24.766;2023-12-29T01:08:04;6.60;64.20
80234;DHT22;69712;42.142;24.766;2023-12-29T01:10:29;6.60;63.70
80234;DHT22;69712;42.142;24.766;2023-12-29T01:12:55;6.60;63.20
80234;DHT22;69712;42.142;24.766;2023-12-29T01:15:21;6.60;63.50
80234;DHT22;69712;42.142;24.766;2023-12-29T01:17:47;6.40;64.30
80234;DHT22;69712;42.142;24.766;2023-12-29T01:20:13;6.20;64.30
80234;DHT22;69712;42.142;24.766;2023-12-29T01:22:39;6.10;65.20
80234;DHT22;69712;42.142;24.766;2023-12-29T01:25:05;5.90;66.20
80234;DHT22;69712;42.142;24.766;2023-12-29T01:27:32;5.90;66.50
80234;DHT22;69712;42.142;24.766;2023-12-29T01:29:57;6.00;66.60
80234;DHT22;69712;42.142;24.766;2023-12-29T01:32:23;6.00;66.10
80234;DHT22;69712;42.142;24.766;2023-12-29T01:34:49;6.20;65.40
80234;DHT22;69712;42.142;24.766;2023-12-29T01:37:15;6.10;65.30
80234;DHT22;69712;42.142;24.766;2023-12-29T01:39:41;6.10;65.60
80234;DHT22;69712;42.142;24.766;2023-12-29T01:42:07;6.20;65.50
80234;DHT22;69712;42.142;24.766;2023-12-29T01:44:33;6.10;65.10
80234;DHT22;69712;42.142;24.766;2023-12-29T01:47:00;6.10;65.00
80234;DHT22;69712;42.142;24.766;2023-12-29T01:49:26;5.90;66.10
80234;DHT22;69712;42.142;24.766;2023-12-29T01:51:58;5.90;66.50
80234;DHT22;69712;42.142;24.766;2023-12-29T01:54:26;5.90;66.30
80234;DHT22;69712;42.142;24.766;2023-12-29T01:56:55;6.00;66.30
80234;DHT22;69712;42.142;24.766;2023-12-29T01:59:23;5.80;66.50
80234;DHT22;69712;42.142;24.766;2023-12-29T02:01:50;5.80;67.00
80234;DHT22;69712;42.142;24.766;2023-12-29T02:04:17;5.70;67.00
80234;DHT22;69712;42.142;24.766;2023-12-29T02:06:43;5.70;66.70
80234;DHT22;69712;42.142;24.766;2023-12-29T02:09:10;5.90;66.20
80234;DHT22;69712;42.142;24.766;2023-12-29T02:11:38;5.90;65.80
80234;DHT22;69712;42.142;24.766;2023-12-29T02:14:04;5.80;66.00
80234;DHT22;69712;42.142;24.766;2023-12-29T02:19:42;5.80;66.20
80234;DHT22;69712;42.142;24.766;2023-12-29T02:22:11;5.60;66.30
80234;DHT22;69712;42.142;24.766;2023-12-29T02:24:38;5.50;67.20
80234;DHT22;69712;42.142;24.766;2023-12-29T02:27:12;5.30;67.90
80234;DHT22;69712;42.142;24.766;2023-12-29T02:29:45;5.30;68.50
80234;DHT22;69712;42.142;24.766;2023-12-29T02:32:16;5.30;68.80
80234;DHT22;69712;42.142;24.766;2023-12-29T02:34:44;5.40;68.60
80234;DHT22;69712;42.142;24.766;2023-12-29T02:37:14;5.40;68.50
80234;DHT22;69712;42.142;24.766;2023-12-29T02:39:40;5.30;69.00
80234;DHT22;69712;42.142;24.766;2023-12-29T02:42:06;5.30;68.40
80234;DHT22;69712;42.142;24.766;2023-12-29T02:44:32;5.30;68.00
80234;DHT22;69712;42.142;24.766;2023-12-29T02:46:58;5.40;67.70
80234;DHT22;69712;42.142;24.766;2023-12-29T02:49:27;5.50;67.30
80234;DHT22;69712;42.142;24.766;2023-12-29T02:51:52;5.50;67.10
80234;DHT22;69712;42.142;24.766;2023-12-29T02:54:18;5.20;68.40
80234;DHT22;69712;42.142;24.766;2023-12-29T02:56:44;5.20;69.00
80234;DHT22;69712;42.142;24.766;2023-12-29T02:59:10;5.10;69.60
80234;DHT22;69712;42.142;24.766;2023-12-29T03:01:36;5.10;69.20
80234;DHT22;69712;42.142;24.766;2023-12-29T03:04:02;5.20;68.20
80234;DHT22;69712;42.142;24.766;2023-12-29T03:06:28;5.30;67.60
80234;DHT22;69712;42.142;24.766;2023-12-29T03:08:54;5.20;67.40
80234;DHT22;69712;42.142;24.766;2023-12-29T03:11:19;5.10;68.60
80234;DHT22;69712;42.142;24.766;2023-12-29T03:13:45;4.70;70.80
80234;DHT22;69712;42.142;24.766;2023-12-29T03:16:11;4.70;71.20
80234;DHT22;69712;42.142;24.766;2023-12-29T03:18:37;4.80;71.30
80234;DHT22;69712;42.142;24.766;2023-12-29T03:21:05;4.90;71.10
80234;DHT22;69712;42.142;24.766;2023-12-29T03:23:31;5.00;69.90
80234;DHT22;69712;42.142;24.766;2023-12-29T03:25:57;5.10;69.00
80234;DHT22;69712;42.142;24.766;2023-12-29T03:28:23;5.10;69.30
80234;DHT22;69712;42.142;24.766;2023-12-29T03:30:48;5.00;69.20
80234;DHT22;69712;42.142;24.766;2023-12-29T03:33:15;5.10;69.40
80234;DHT22;69712;42.142;24.766;2023-12-29T03:35:41;5.00;69.50
80234;DHT22;69712;42.142;24.766;2023-12-29T03:38:07;5.10;69.00
80234;DHT22;69712;42.142;24.766;2023-12-29T03:40:32;5.30;68.10
80234;DHT22;69712;42.142;24.766;2023-12-29T03:42:58;5.40;67.10
80234;DHT22;69712;42.142;24.766;2023-12-29T03:45:24;5.40;66.80
80234;DHT22;69712;42.142;24.766;2023-12-29T03:47:50;5.30;67.10
80234;DHT22;69712;42.142;24.766;2023-12-29T03:50:15;5.40;67.20
80234;DHT22;69712;42.142;24.766;2023-12-29T03:52:41;5.30;66.80
80234;DHT22;69712;42.142;24.766;2023-12-29T03:55:07;5.20;67.70
80234;DHT22;69712;42.142;24.766;2023-12-29T03:57:33;5.20;67.50
80234;DHT22;69712;42.142;24.766;2023-12-29T03:59:59;5.20;68.00
80234;DHT22;69712;42.142;24.766;2023-12-29T04:02:24;5.20;67.40
80234;DHT22;69712;42.142;24.766;2023-12-29T04:04:50;5.20;67.80
80234;DHT22;69712;42.142;24.766;2023-12-29T04:07:16;4.90;68.90
80234;DHT22;69712;42.142;24.766;2023-12-29T04:09:42;4.80;69.70
80234;DHT22;69712;42.142;24.766;2023-12-29T04:12:08;4.60;70.10
80234;DHT22;69712;42.142;24.766;2023-12-29T04:14:34;4.20;71.30
80234;DHT22;69712;42.142;24.766;2023-12-29T04:17:00;4.20;72.50
80234;DHT22;69712;42.142;24.766;2023-12-29T04:19:28;4.20;72.90
80234;DHT22;69712;42.142;24.766;2023-12-29T04:21:54;4.10;71.90
80234;DHT22;69712;42.142;24.766;2023-12-29T04:24:20;4.20;72.10
80234;DHT22;69712;42.142;24.766;2023-12-29T04:26:46;4.20;72.20
80234;DHT22;69712;42.142;24.766;2023-12-29T04:29:11;4.20;72.20
80234;DHT22;69712;42.142;24.766;2023-12-29T04:31:37;4.40;71.90
80234;DHT22;69712;42.142;24.766;2023-12-29T04:34:03;4.30;72.00
80234;DHT22;69712;42.142;24.766;2023-12-29T04:36:29;4.20;73.00
80234;DHT22;69712;42.142;24.766;2023-12-29T04:38:54;4.20;72.90
80234;DHT22;69712;42.142;24.766;2023-12-29T04:41:20;4.30;72.20
80234;DHT22;69712;42.142;24.766;2023-12-29T04:43:46;4.50;71.30
80234;DHT22;69712;42.142;24.766;2023-12-29T04:46:12;4.60;70.70
80234;DHT22;69712;42.142;24.766;2023-12-29T04:48:37;4.60;71.00
80234;DHT22;69712;42.142;24.766;2023-12-29T04:51:03;4.50;70.90
80234;DHT22;69712;42.142;24.766;2023-12-29T04:53:29;4.50;71.20
80234;DHT22;69712;42.142;24.766;2023-12-29T04:55:55;4.30;70.30
80234;DHT22;69712;42.142;24.766;2023-12-29T04:58:21;4.40;72.50
80234;DHT22;69712;42.142;24.766;2023-12-29T05:00:47;4.40;71.00
80234;DHT22;69712;42.142;24.766;2023-12-29T05:03:12;4.40;70.20
80234;DHT22;69712;42.142;24.766;2023-12-29T05:05:38;4.40;70.80
80234;DHT22;69712;42.142;24.766;2023-12-29T05:08:04;4.40;71.00
80234;DHT22;69712;42.142;24.766;2023-12-29T05:10:30;4.40;70.80
80234;DHT22;69712;42.142;24.766;2023-12-29T05:12:56;4.30;70.70
80234;DHT22;69712;42.142;24.766;2023-12-29T05:15:22;4.20;71.80
80234;DHT22;69712;42.142;24.766;2023-12-29T05:17:47;4.00;72.60
80234;DHT22;69712;42.142;24.766;2023-12-29T05:20:13;4.00;72.60
80234;DHT22;69712;42.142;24.766;2023-12-29T05:22:39;4.00;72.40
80234;DHT22;69712;42.142;24.766;2023-12-29T05:25:05;4.10;72.70
80234;DHT22;69712;42.142;24.766;2023-12-29T05:27:31;3.90;72.80
80234;DHT22;69712;42.142;24.766;2023-12-29T05:29:57;3.80;72.50
80234;DHT22;69712;42.142;24.766;2023-12-29T05:32:23;3.70;73.30
80234;DHT22;69712;42.142;24.766;2023-12-29T05:34:49;3.60;74.80
80234;DHT22;69712;42.142;24.766;2023-12-29T05:37:14;3.50;75.60
80234;DHT22;69712;42.142;24.766;2023-12-29T05:39:43;3.50;76.20
80234;DHT22;69712;42.142;24.766;2023-12-29T05:42:09;3.40;76.60
80234;DHT22;69712;42.142;24.766;2023-12-29T05:44:38;3.40;77.00
80234;DHT22;69712;42.142;24.766;2023-12-29T05:47:07;3.40;74.80
80234;DHT22;69712;42.142;24.766;2023-12-29T05:49:33;3.20;75.40
80234;DHT22;69712;42.142;24.766;2023-12-29T05:52:04;3.10;76.20
80234;DHT22;69712;42.142;24.766;2023-12-29T05:54:30;3.10;75.80
80234;DHT22;69712;42.142;24.766;2023-12-29T05:56:55;3.20;76.20
80234;DHT22;69712;42.142;24.766;2023-12-29T05:59:21;3.20;75.60
80234;DHT22;69712;42.142;24.766;2023-12-29T06:01:47;3.30;75.00
80234;DHT22;69712;42.142;24.766;2023-12-29T06:04:13;3.30;75.30
80234;DHT22;69712;42.142;24.766;2023-12-29T06:06:39;3.30;75.10
80234;DHT22;69712;42.142;24.766;2023-12-29T06:09:07;3.40;75.50
80234;DHT22;69712;42.142;24.766;2023-12-29T06:11:32;3.50;74.30
80234;DHT22;69712;42.142;24.766;2023-12-29T06:17:20;3.70;73.10
80234;DHT22;69712;42.142;24.766;2023-12-29T06:20:07;4.00;72.20
80234;DHT22;69712;42.142;24.766;2023-12-29T06:22:42;3.60;73.80
80234;DHT22;69712;42.142;24.766;2023-12-29T06:25:12;3.60;74.60
80234;DHT22;69712;42.142;24.766;2023-12-29T06:27:39;3.70;73.90
80234;DHT22;69712;42.142;24.766;2023-12-29T06:30:07;3.80;73.50
80234;DHT22;69712;42.142;24.766;2023-12-29T06:32:33;3.80;73.70
80234;DHT22;69712;42.142;24.766;2023-12-29T06:35:00;3.90;73.60
80234;DHT22;69712;42.142;24.766;2023-12-29T06:37:26;4.00;73.50
80234;DHT22;69712;42.142;24.766;2023-12-29T06:39:52;4.10;73.00
80234;DHT22;69712;42.142;24.766;2023-12-29T06:42:19;4.30;73.00
80234;DHT22;69712;42.142;24.766;2023-12-29T06:44:45;4.40;73.00
80234;DHT22;69712;42.142;24.766;2023-12-29T06:47:11;4.60;71.70
80234;DHT22;69712;42.142;24.766;2023-12-29T06:49:38;4.80;70.50
80234;DHT22;69712;42.142;24.766;2023-12-29T06:52:04;5.10;68.90
80234;DHT22;69712;42.142;24.766;2023-12-29T06:54:30;5.50;68.10
80234;DHT22;69712;42.142;24.766;2023-12-29T06:56:56;5.90;66.10
80234;DHT22;69712;42.142;24.766;2023-12-29T06:59:23;6.40;63.70
80234;DHT22;69712;42.142;24.766;2023-12-29T07:01:49;6.60;63.70
80234;DHT22;69712;42.142;24.766;2023-12-29T07:04:14;6.90;63.10
80234;DHT22;69712;42.142;24.766;2023-12-29T07:06:41;7.10;62.60
80234;DHT22;69712;42.142;24.766;2023-12-29T07:09:07;7.10;63.10
80234;DHT22;69712;42.142;24.766;2023-12-29T07:11:34;7.40;60.60
80234;DHT22;69712;42.142;24.766;2023-12-29T07:14:00;7.90;59.00
80234;DHT22;69712;42.142;24.766;2023-12-29T07:16:27;8.00;58.60
80234;DHT22;69712;42.142;24.766;2023-12-29T07:18:52;8.20;59.60
80234;DHT22;69712;42.142;24.766;2023-12-29T07:21:18;8.60;58.50
80234;DHT22;69712;42.142;24.766;2023-12-29T07:23:44;8.90;56.60
80234;DHT22;69712;42.142;24.766;2023-12-29T07:26:10;8.40;56.70
80234;DHT22;69712;42.142;24.766;2023-12-29T07:28:36;8.20;55.90
80234;DHT22;69712;42.142;24.766;2023-12-29T07:31:02;8.70;56.80
80234;DHT22;69712;42.142;24.766;2023-12-29T07:33:28;9.00;54.80
80234;DHT22;69712;42.142;24.766;2023-12-29T07:35:53;9.30;54.70
80234;DHT22;69712;42.142;24.766;2023-12-29T07:38:20;9.70;53.30
80234;DHT22;69712;42.142;24.766;2023-12-29T07:40:46;9.90;52.60
80234;DHT22;69712;42.142;24.766;2023-12-29T07:43:13;10.50;51.20
80234;DHT22;69712;42.142;24.766;2023-12-29T07:45:39;10.90;50.20
80234;DHT22;69712;42.142;24.766;2023-12-29T07:48:05;11.40;48.60
80234;DHT22;69712;42.142;24.766;2023-12-29T07:50:31;11.70;46.60
80234;DHT22;69712;42.142;24.766;2023-12-29T07:52:57;11.40;47.20
80234;DHT22;69712;42.142;24.766;2023-12-29T07:55:23;10.90;47.90
80234;DHT22;69712;42.142;24.766;2023-12-29T07:57:49;11.00;49.90
80234;DHT22;69712;42.142;24.766;2023-12-29T08:00:15;11.50;48.00
80234;DHT22;69712;42.142;24.766;2023-12-29T08:02:41;12.10;47.30
80234;DHT22;69712;42.142;24.766;2023-12-29T08:05:07;13.20;45.80
80234;DHT22;69712;42.142;24.766;2023-12-29T08:07:36;14.70;41.60
80234;DHT22;69712;42.142;24.766;2023-12-29T08:10:04;16.20;38.30
80234;DHT22;69712;42.142;24.766;2023-12-29T08:12:30;16.50;35.40
80234;DHT22;69712;42.142;24.766;2023-12-29T08:14:59;16.00;35.90
80234;DHT22;69712;42.142;24.766;2023-12-29T08:17:25;17.00;36.90
80234;DHT22;69712;42.142;24.766;2023-12-29T08:19:50;17.00;34.90
80234;DHT22;69712;42.142;24.766;2023-12-29T08:22:16;18.40;33.90
80234;DHT22;69712;42.142;24.766;2023-12-29T08:24:42;19.30;32.50
80234;DHT22;69712;42.142;24.766;2023-12-29T08:27:12;20.30;30.50
80234;DHT22;69712;42.142;24.766;2023-12-29T08:29:38;21.10;29.10
80234;DHT22;69712;42.142;24.766;2023-12-29T08:32:04;21.20;28.20
80234;DHT22;69712;42.142;24.766;2023-12-29T08:34:30;22.00;27.30
80234;DHT22;69712;42.142;24.766;2023-12-29T08:36:56;21.90;27.20
80234;DHT22;69712;42.142;24.766;2023-12-29T08:39:22;23.20;26.10
80234;DHT22;69712;42.142;24.766;2023-12-29T08:41:48;23.70;25.90
80234;DHT22;69712;42.142;24.766;2023-12-29T08:44:17;24.70;25.00
80234;DHT22;69712;42.142;24.766;2023-12-29T08:46:43;24.90;24.30
80234;DHT22;69712;42.142;24.766;2023-12-29T08:49:08;25.40;23.10
80234;DHT22;69712;42.142;24.766;2023-12-29T08:51:34;24.20;24.80
80234;DHT22;69712;42.142;24.766;2023-12-29T08:54:00;24.20;23.60
80234;DHT22;69712;42.142;24.766;2023-12-29T08:56:26;24.70;24.10
80234;DHT22;69712;42.142;24.766;2023-12-29T08:58:53;24.70;23.40
80234;DHT22;69712;42.142;24.766;2023-12-29T09:01:19;24.40;23.40
80234;DHT22;69712;42.142;24.766;2023-12-29T09:03:45;24.00;24.80
80234;DHT22;69712;42.142;24.766;2023-12-29T09:06:11;25.00;23.40
80234;DHT22;69712;42.142;24.766;2023-12-29T09:08:37;24.80;22.60
80234;DHT22;69712;42.142;24.766;2023-12-29T09:11:04;25.50;22.60
80234;DHT22;69712;42.142;24.766;2023-12-29T09:13:30;25.70;22.10
80234;DHT22;69712;42.142;24.766;2023-12-29T09:15:58;25.70;22.60
80234;DHT22;69712;42.142;24.766;2023-12-29T09:18:24;25.40;22.50
80234;DHT22;69712;42.142;24.766;2023-12-29T09:20:50;25.40;22.60
80234;DHT22;69712;42.142;24.766;2023-12-29T09:23:16;25.50;21.60
80234;DHT22;69712;42.142;24.766;2023-12-29T09:25:41;25.20;23.30
80234;DHT22;69712;42.142;24.766;2023-12-29T09:28:07;24.80;22.00
80234;DHT22;69712;42.142;24.766;2023-12-29T09:30:33;24.60;22.00
80234;DHT22;69712;42.142;24.766;2023-12-29T09:32:59;23.60;23.10
80234;DHT22;69712;42.142;24.766;2023-12-29T09:35:25;23.70;24.20
80234;DHT22;69712;42.142;24.766;2023-12-29T09:37:51;23.90;24.30
80234;DHT22;69712;42.142;24.766;2023-12-29T09:40:17;23.70;23.50
80234;DHT22;69712;42.142;24.766;2023-12-29T09:42:45;24.10;24.20
80234;DHT22;69712;42.142;24.766;2023-12-29T09:45:13;23.60;23.50
80234;DHT22;69712;42.142;24.766;2023-12-29T09:47:41;24.30;22.40
80234;DHT22;69712;42.142;24.766;2023-12-29T09:50:12;24.60;23.80
80234;DHT22;69712;42.142;24.766;2023-12-29T09:52:39;24.30;22.50
80234;DHT22;69712;42.142;24.766;2023-12-29T09:55:08;24.50;22.80
80234;DHT22;69712;42.142;24.766;2023-12-29T09:57:37;24.00;22.40
80234;DHT22;69712;42.142;24.766;2023-12-29T10:00:04;23.80;23.20
80234;DHT22;69712;42.142;24.766;2023-12-29T10:02:31;23.20;23.30
80234;DHT22;69712;42.142;24.766;2023-12-29T10:04:59;22.40;23.70
80234;DHT22;69712;42.142;24.766;2023-12-29T10:07:27;23.10;24.00
80234;DHT22;69712;42.142;24.766;2023-12-29T10:09:56;24.10;22.70
80234;DHT22;69712;42.142;24.766;2023-12-29T10:12:23;24.40;22.80
80234;DHT22;69712;42.142;24.766;2023-12-29T10:17:51;24.80;22.40
80234;DHT22;69712;42.142;24.766;2023-12-29T10:20:23;25.30;21.70
80234;DHT22;69712;42.142;24.766;2023-12-29T10:23:06;25.50;21.50
80234;DHT22;69712;42.142;24.766;2023-12-29T10:25:34;25.50;21.60
80234;DHT22;69712;42.142;24.766;2023-12-29T10:28:01;25.20;21.30
80234;DHT22;69712;42.142;24.766;2023-12-29T10:30:28;25.20;21.60
80234;DHT22;69712;42.142;24.766;2023-12-29T10:32:54;24.80;21.70
80234;DHT22;69712;42.142;24.766;2023-12-29T10:35:20;23.40;22.50
80234;DHT22;69712;42.142;24.766;2023-12-29T10:37:46;23.50;23.50
80234;DHT22;69712;42.142;24.766;2023-12-29T10:40:18;23.50;24.10
80234;DHT22;69712;42.142;24.766;2023-12-29T10:42:54;23.40;23.30
80234;DHT22;69712;42.142;24.766;2023-12-29T10:45:21;23.20;23.50
80234;DHT22;69712;42.142;24.766;2023-12-29T10:47:48;23.70;24.10
80234;DHT22;69712;42.142;24.766;2023-12-29T10:50:14;23.20;23.60
80234;DHT22;69712;42.142;24.766;2023-12-29T10:52:40;22.90;24.30
80234;DHT22;69712;42.142;24.766;2023-12-29T10:55:09;22.40;24.40
80234;DHT22;69712;42.142;24.766;2023-12-29T10:57:36;22.10;24.90
80234;DHT22;69712;42.142;24.766;2023-12-29T11:00:02;21.10;25.70
80234;DHT22;69712;42.142;24.766;2023-12-29T11:02:33;21.70;26.40
80234;DHT22;69712;42.142;24.766;2023-12-29T11:05:03;22.30;25.80
80234;DHT22;69712;42.142;24.766;2023-12-29T11:07:33;21.80;26.40
80234;DHT22;69712;42.142;24.766;2023-12-29T11:10:01;21.30;26.60
80234;DHT22;69712;42.142;24.766;2023-12-29T11:12:32;21.40;26.50
80234;DHT22;69712;42.142;24.766;2023-12-29T11:14:58;21.70;26.20
80234;DHT22;69712;42.142;24.766;2023-12-29T11:17:26;22.00;26.40
80234;DHT22;69712;42.142;24.766;2023-12-29T11:19:52;21.80;26.10
80234;DHT22;69712;42.142;24.766;2023-12-29T11:22:18;21.60;26.50
80234;DHT22;69712;42.142;24.766;2023-12-29T11:24:48;21.20;26.70
80234;DHT22;69712;42.142;24.766;2023-12-29T11:27:15;21.00;26.80
80234;DHT22;69712;42.142;24.766;2023-12-29T11:29:42;20.70;27.20
80234;DHT22;69712;42.142;24.766;2023-12-29T11:32:15;20.90;28.30
80234;DHT22;69712;42.142;24.766;2023-12-29T11:34:49;21.10;27.70
80234;DHT22;69712;42.142;24.766;2023-12-29T11:40:14;20.80;27.60
80234;DHT22;69712;42.142;24.766;2023-12-29T11:42:42;20.40;26.80
80234;DHT22;69712;42.142;24.766;2023-12-29T11:45:39;20.70;26.80
80234;DHT22;69712;42.142;24.766;2023-12-29T11:48:05;20.70;27.00
80234;DHT22;69712;42.142;24.766;2023-12-29T11:50:38;20.30;27.20
80234;DHT22;69712;42.142;24.766;2023-12-29T11:53:07;20.40;27.40
80234;DHT22;69712;42.142;24.766;2023-12-29T11:55:38;20.30;27.00
80234;DHT22;69712;42.142;24.766;2023-12-29T11:58:22;20.00;27.20
80234;DHT22;69712;42.142;24.766;2023-12-29T12:00:48;19.50;27.50
80234;DHT22;69712;42.142;24.766;2023-12-29T12:05:48;19.30;28.00
80234;DHT22;69712;42.142;24.766;2023-12-29T12:08:33;19.40;28.00
80234;DHT22;69712;42.142;24.766;2023-12-29T12:11:43;19.40;27.80
80234;DHT22;69712;42.142;24.766;2023-12-29T12:14:09;19.40;28.40
80234;DHT22;69712;42.142;24.766;2023-12-29T12:16:51;19.20;28.60
80234;DHT22;69712;42.142;24.766;2023-12-29T12:19:20;18.50;28.90
80234;DHT22;69712;42.142;24.766;2023-12-29T12:21:47;18.30;29.30
80234;DHT22;69712;42.142;24.766;2023-12-29T12:24:14;17.90;29.90
80234;DHT22;69712;42.142;24.766;2023-12-29T12:26:43;17.80;30.50
80234;DHT22;69712;42.142;24.766;2023-12-29T12:29:09;17.80;31.10
80234;DHT22;69712;42.142;24.766;2023-12-29T12:31:35;17.40;31.70
80234;DHT22;69712;42.142;24.766;2023-12-29T12:34:01;17.40;31.70
80234;DHT22;69712;42.142;24.766;2023-12-29T12:36:27;17.60;31.40
80234;DHT22;69712;42.142;24.766;2023-12-29T12:38:53;17.40;31.70
80234;DHT22;69712;42.142;24.766;2023-12-29T12:41:25;17.50;32.10
80234;DHT22;69712;42.142;24.766;2023-12-29T12:44:10;17.50;32.20
80234;DHT22;69712;42.142;24.766;2023-12-29T12:46:44;17.40;32.50
80234;DHT22;69712;42.142;24.766;2023-12-29T12:49:14;17.50;32.70
80234;DHT22;69712;42.142;24.766;2023-12-29T12:51:40;17.40;32.40
80234;DHT22;69712;42.142;24.766;2023-12-29T12:54:07;17.30;33.00
80234;DHT22;69712;42.142;24.766;2023-12-29T12:56:34;17.20;33.40
80234;DHT22;69712;42.142;24.766;2023-12-29T12:59:02;17.00;33.30
80234;DHT22;69712;42.142;24.766;2023-12-29T13:01:28;17.10;33.70
80234;DHT22;69712;42.142;24.766;2023-12-29T13:03:57;16.80;35.40
80234;DHT22;69712;42.142;24.766;2023-12-29T13:06:24;16.60;34.10
80234;DHT22;69712;42.142;24.766;2023-12-29T13:08:50;16.80;33.40
80234;DHT22;69712;42.142;24.766;2023-12-29T13:11:20;17.00;33.70
80234;DHT22;69712;42.142;24.766;2023-12-29T13:13:51;17.00;34.40
80234;DHT22;69712;42.142;24.766;2023-12-29T13:18:54;17.10;33.50
80234;DHT22;69712;42.142;24.766;2023-12-29T13:21:20;17.00;33.30
80234;DHT22;69712;42.142;24.766;2023-12-29T13:23:47;16.60;33.90
80234;DHT22;69712;42.142;24.766;2023-12-29T13:26:13;16.70;33.90
80234;DHT22;69712;42.142;24.766;2023-12-29T13:28:40;16.70;34.10
80234;DHT22;69712;42.142;24.766;2023-12-29T13:31:09;16.50;34.60
80234;DHT22;69712;42.142;24.766;2023-12-29T13:34:03;16.50;35.20
80234;DHT22;69712;42.142;24.766;2023-12-29T13:38:59;16.10;35.30
80234;DHT22;69712;42.142;24.766;2023-12-29T13:41:32;16.10;35.90
80234;DHT22;69712;42.142;24.766;2023-12-29T13:43:59;16.00;35.90
80234;DHT22;69712;42.142;24.766;2023-12-29T13:46:26;15.80;36.40
80234;DHT22;69712;42.142;24.766;2023-12-29T13:48:53;15.80;36.80
80234;DHT22;69712;42.142;24.766;2023-12-29T13:51:26;15.90;36.70
80234;DHT22;69712;42.142;24.766;2023-12-29T13:54:02;15.70;37.20
80234;DHT22;69712;42.142;24.766;2023-12-29T13:56:29;15.70;38.00
80234;DHT22;69712;42.142;24.766;2023-12-29T13:58:55;15.70;38.60
80234;DHT22;69712;42.142;24.766;2023-12-29T14:01:21;15.60;39.20
80234;DHT22;69712;42.142;24.766;2023-12-29T14:03:55;15.70;39.20
80234;DHT22;69712;42.142;24.766;2023-12-29T14:06:43;15.80;39.70
80234;DHT22;69712;42.142;24.766;2023-12-29T14:09:15;15.80;39.90
80234;DHT22;69712;42.142;24.766;2023-12-29T14:11:48;15.80;40.30
80234;DHT22;69712;42.142;24.766;2023-12-29T14:14:20;15.90;40.70
80234;DHT22;69712;42.142;24.766;2023-12-29T14:16:46;15.90;40.90
80234;DHT22;69712;42.142;24.766;2023-12-29T14:19:12;15.80;41.40
80234;DHT22;69712;42.142;24.766;2023-12-29T14:21:38;15.60;41.90
80234;DHT22;69712;42.142;24.766;2023-12-29T14:24:13;15.30;43.00
80234;DHT22;69712;42.142;24.766;2023-12-29T14:29:20;15.10;43.80
80234;DHT22;69712;42.142;24.766;2023-12-29T14:31:46;15.00;43.40
80234;DHT22;69712;42.142;24.766;2023-12-29T14:34:14;15.00;43.70
80234;DHT22;69712;42.142;24.766;2023-12-29T14:36:43;15.00;43.90
80234;DHT22;69712;42.142;24.766;2023-12-29T14:39:09;14.90;43.90
80234;DHT22;69712;42.142;24.766;2023-12-29T14:41:36;14.80;43.30
80234;DHT22;69712;42.142;24.766;2023-12-29T14:44:02;14.80;44.00
80234;DHT22;69712;42.142;24.766;2023-12-29T14:46:28;14.70;44.90
80234;DHT22;69712;42.142;24.766;2023-12-29T14:48:57;14.50;44.10
80234;DHT22;69712;42.142;24.766;2023-12-29T14:51:23;14.50;44.00
80234;DHT22;69712;42.142;24.766;2023-12-29T14:53:50;14.40;44.60
80234;DHT22;69712;42.142;24.766;2023-12-29T14:56:17;14.30;45.10
80234;DHT22;69712;42.142;24.766;2023-12-29T14:58:43;14.20;45.10
80234;DHT22;69712;42.142;24.766;2023-12-29T15:01:09;14.10;45.70
80234;DHT22;69712;42.142;24.766;2023-12-29T15:03:36;14.10;45.20
80234;DHT22;69712;42.142;24.766;2023-12-29T15:06:02;14.00;46.30
80234;DHT22;69712;42.142;24.766;2023-12-29T15:08:28;14.00;45.90
80234;DHT22;69712;42.142;24.766;2023-12-29T15:11:04;14.00;47.00
80234;DHT22;69712;42.142;24.766;2023-12-29T15:13:30;14.00;45.40
80234;DHT22;69712;42.142;24.766;2023-12-29T15:16:00;13.80;46.60
80234;DHT22;69712;42.142;24.766;2023-12-29T15:18:45;13.80;45.40
80234;DHT22;69712;42.142;24.766;2023-12-29T15:21:11;14.00;44.60
80234;DHT22;69712;42.142;24.766;2023-12-29T15:23:37;14.00;45.10
80234;DHT22;69712;42.142;24.766;2023-12-29T15:26:04;14.00;44.60
80234;DHT22;69712;42.142;24.766;2023-12-29T15:28:30;14.10;44.70
80234;DHT22;69712;42.142;24.766;2023-12-29T15:30:56;14.00;44.60
80234;DHT22;69712;42.142;24.766;2023-12-29T15:33:22;13.70;45.70
80234;DHT22;69712;42.142;24.766;2023-12-29T15:35:48;13.60;45.20
80234;DHT22;69712;42.142;24.766;2023-12-29T15:38:15;13.60;45.70
80234;DHT22;69712;42.142;24.766;2023-12-29T15:40:40;13.60;45.30
80234;DHT22;69712;42.142;24.766;2023-12-29T15:43:06;13.60;46.20
80234;DHT22;69712;42.142;24.766;2023-12-29T15:45:33;13.40;45.80
80234;DHT22;69712;42.142;24.766;2023-12-29T15:48:00;13.30;46.70